createdAt,value
2018-12-15T00:01:41.079Z,10.10
2018-12-15T00:04:09.846Z,10.10
2018-12-15T00:06:38.492Z,10.40
2018-12-15T00:09:07.251Z,10.10
2018-12-15T00:11:36.520Z,10.10
2018-12-15T00:14:05.761Z,10.00
2018-12-15T00:16:34.785Z,10.00
2018-12-15T00:19:03.883Z,9.90
2018-12-15T00:21:32.999Z,9.80
2018-12-15T00:24:02.261Z,9.80
2018-12-15T00:26:31.864Z,9.50
2018-12-15T00:29:01.089Z,9.60
2018-12-15T00:31:30.193Z,9.60
2018-12-15T00:33:59.516Z,9.50
2018-12-15T00:36:28.801Z,9.40
2018-12-15T00:38:58.060Z,9.50
2018-12-15T00:41:26.738Z,9.50
2018-12-15T00:43:55.824Z,9.20
2018-12-15T00:46:24.888Z,9.00
2018-12-15T00:48:53.584Z,9.10
2018-12-15T00:51:22.224Z,9.10
2018-12-15T00:53:51.583Z,9.20
2018-12-15T00:56:20.881Z,9.10
2018-12-15T00:58:50.126Z,8.90
2018-12-15T01:01:19.437Z,8.60
2018-12-15T01:03:48.661Z,8.60
2018-12-15T01:06:18.038Z,8.70
2018-12-15T01:08:47.747Z,8.50
2018-12-15T01:11:16.824Z,8.40
2018-12-15T01:13:45.831Z,8.30
2018-12-15T01:16:14.937Z,8.30
2018-12-15T01:18:44.268Z,8.30
2018-12-15T01:21:13.669Z,8.40
2018-12-15T01:23:42.347Z,8.40
2018-12-15T01:26:11.003Z,8.20
2018-12-15T01:28:40.596Z,8.30
2018-12-15T01:31:09.241Z,8.30
2018-12-15T01:33:37.888Z,8.20
2018-12-15T01:36:07.071Z,8.30
2018-12-15T01:38:36.598Z,8.30
2018-12-15T01:41:06.018Z,8.10
2018-12-15T01:43:35.995Z,8.20
2018-12-15T01:46:05.509Z,8.10
2018-12-15T01:48:34.739Z,8.30
2018-12-15T01:51:03.811Z,8.40
2018-12-15T01:53:33.134Z,8.40
2018-12-15T01:56:02.255Z,8.10
2018-12-15T01:58:31.523Z,8.30
2018-12-15T02:01:01.383Z,8.30
2018-12-15T02:03:30.426Z,8.30
2018-12-15T02:05:59.499Z,7.90
2018-12-15T02:08:28.152Z,8.20
2018-12-15T02:10:56.850Z,8.00
2018-12-15T02:13:25.521Z,7.90
2018-12-15T02:15:54.205Z,8.00
2018-12-15T02:18:23.100Z,7.80
2018-12-15T02:20:52.142Z,8.00
2018-12-15T02:23:21.801Z,7.70
2018-12-15T02:25:51.073Z,7.90
2018-12-15T02:28:20.260Z,7.50
2018-12-15T02:30:49.695Z,8.00
2018-12-15T02:33:19.188Z,8.00
2018-12-15T02:35:48.268Z,7.90
2018-12-15T02:38:17.574Z,7.90
2018-12-15T02:40:46.649Z,7.90
2018-12-15T02:43:15.959Z,8.00
2018-12-15T03:00:45.577Z,7.70
2018-12-15T03:03:14.271Z,7.70
2018-12-15T03:05:43.442Z,7.60
2018-12-15T03:08:12.084Z,7.60
2018-12-15T03:10:40.747Z,7.50
2018-12-15T03:13:09.368Z,7.60
2018-12-15T03:15:38.012Z,7.50
2018-12-15T03:18:06.713Z,7.50
2018-12-15T03:20:35.832Z,7.50
2018-12-15T03:23:05.278Z,7.50
2018-12-15T03:25:34.548Z,7.50
2018-12-15T03:28:04.160Z,7.50
2018-12-15T03:30:32.900Z,7.60
2018-12-15T03:33:02.182Z,7.40
2018-12-15T03:35:31.446Z,7.40
2018-12-15T03:38:01.011Z,7.40
2018-12-15T03:40:30.517Z,7.40
2018-12-15T03:42:59.612Z,7.40
2018-12-15T03:45:28.775Z,7.30
2018-12-15T03:47:57.492Z,7.30
2018-12-15T03:50:26.153Z,7.30
2018-12-15T03:52:54.938Z,7.60
2018-12-15T03:55:23.873Z,7.30
2018-12-15T03:57:52.539Z,7.30
2018-12-15T04:00:21.193Z,7.20
2018-12-15T04:02:49.930Z,7.20
2018-12-15T04:05:18.961Z,7.20
2018-12-15T04:07:48.520Z,7.20
2018-12-15T04:10:18.539Z,7.20
2018-12-15T04:12:48.165Z,7.10
2018-12-15T04:15:17.521Z,7.10
2018-12-15T04:17:46.766Z,7.00
2018-12-15T04:20:16.051Z,7.00
2018-12-15T04:22:45.157Z,6.90
2018-12-15T04:25:14.483Z,6.80
2018-12-15T04:27:43.555Z,6.70
2018-12-15T04:30:12.744Z,6.90
2018-12-15T04:32:45.189Z,6.60
2018-12-15T04:35:13.662Z,6.60
2018-12-15T04:37:43.214Z,6.60
2018-12-15T04:40:12.305Z,6.50
2018-12-15T04:42:41.500Z,6.50
2018-12-15T04:45:10.791Z,6.50
2018-12-15T04:47:40.070Z,6.50
2018-12-15T04:50:09.290Z,6.70
2018-12-15T04:52:39.298Z,6.60
2018-12-15T04:55:08.689Z,6.80
2018-12-15T04:57:38.180Z,6.70
2018-12-15T05:00:08.637Z,6.80
2018-12-15T05:02:43.586Z,6.80
2018-12-15T05:05:09.297Z,6.70
2018-12-15T05:07:38.981Z,6.80
2018-12-15T05:10:08.048Z,6.90
2018-12-15T05:12:37.300Z,6.80
2018-12-15T05:15:06.669Z,6.80
2018-12-15T05:17:35.363Z,6.80
2018-12-15T05:20:04.459Z,6.70
2018-12-15T05:22:33.133Z,6.70
2018-12-15T05:25:01.847Z,6.60
2018-12-15T05:27:31.217Z,6.60
2018-12-15T05:29:59.920Z,6.50
2018-12-15T05:32:29.155Z,6.80
2018-12-15T05:34:58.419Z,6.40
2018-12-15T05:37:34.940Z,6.30
2018-12-15T05:40:04.685Z,6.00
2018-12-15T05:42:33.818Z,6.10
2018-12-15T05:45:03.119Z,6.10
2018-12-15T05:47:32.413Z,6.00
2018-12-15T05:50:01.726Z,6.00
2018-12-15T05:52:30.708Z,5.90
2018-12-15T05:54:59.883Z,5.80
2018-12-15T05:57:29.630Z,5.70
2018-12-15T05:59:58.836Z,5.70
2018-12-15T06:02:28.063Z,5.60
2018-12-15T06:04:57.391Z,5.60
2018-12-15T06:07:26.103Z,5.80
2018-12-15T06:09:54.795Z,5.60
2018-12-15T06:12:24.016Z,5.60
2018-12-15T06:14:52.761Z,5.70
2018-12-15T06:17:21.646Z,5.50
2018-12-15T06:19:50.539Z,5.60
2018-12-15T06:22:19.290Z,5.50
2018-12-15T06:24:48.963Z,5.30
2018-12-15T06:27:18.386Z,5.40
2018-12-15T06:29:47.832Z,5.40
2018-12-15T06:32:16.960Z,5.30
2018-12-15T06:34:46.671Z,5.40
2018-12-15T06:37:16.373Z,5.20
2018-12-15T06:39:46.657Z,5.40
2018-12-15T06:42:15.806Z,5.40
2018-12-15T06:44:44.846Z,5.30
2018-12-15T06:47:13.575Z,5.20
2018-12-15T06:49:42.359Z,4.90
2018-12-15T06:52:11.055Z,5.10
2018-12-15T06:54:39.840Z,5.10
2018-12-15T06:57:08.995Z,5.10
2018-12-15T06:59:37.734Z,5.00
2018-12-15T07:02:07.101Z,5.00
2018-12-15T07:04:36.198Z,5.00
2018-12-15T07:07:05.672Z,5.00
2018-12-15T07:09:34.978Z,5.00
2018-12-15T07:12:04.129Z,4.80
2018-12-15T07:14:33.383Z,5.00
2018-12-15T07:17:02.691Z,4.80
2018-12-15T07:19:32.199Z,4.70
2018-12-15T07:22:01.523Z,4.70
2018-12-15T07:24:30.816Z,4.70
2018-12-15T07:26:59.699Z,4.70
2018-12-15T07:29:28.488Z,4.60
2018-12-15T07:31:57.446Z,4.70
2018-12-15T07:34:26.277Z,4.70
2018-12-15T07:36:55.497Z,4.60
2018-12-15T07:39:24.235Z,4.70
2018-12-15T07:41:53.588Z,4.50
2018-12-15T07:44:22.809Z,4.60
2018-12-15T07:46:52.685Z,4.50
2018-12-15T07:49:21.704Z,4.50
2018-12-15T07:51:50.951Z,4.30
2018-12-15T07:54:20.042Z,4.50
2018-12-15T07:56:49.360Z,4.50
2018-12-15T07:59:18.511Z,4.50
2018-12-15T08:01:47.618Z,4.30
2018-12-15T08:04:16.944Z,4.20
2018-12-15T08:06:45.757Z,4.10
2018-12-15T08:09:14.468Z,4.00
2018-12-15T08:11:48.975Z,4.20
2018-12-15T08:14:18.145Z,4.50
2018-12-15T08:16:47.646Z,4.20
2018-12-15T08:19:16.682Z,4.20
2018-12-15T08:21:45.531Z,4.50
2018-12-15T08:24:14.908Z,4.20
2018-12-15T08:26:44.206Z,4.30
2018-12-15T08:29:13.041Z,4.20
2018-12-15T08:31:42.323Z,4.50
2018-12-15T08:34:11.249Z,4.50
2018-12-15T08:36:40.198Z,4.30
2018-12-15T08:39:09.034Z,4.40
2018-12-15T08:41:38.842Z,4.50
2018-12-15T08:44:08.739Z,4.40
2018-12-15T08:46:38.127Z,4.30
2018-12-15T08:49:07.626Z,4.50
2018-12-15T08:51:36.514Z,4.40
2018-12-15T08:54:05.533Z,4.40
2018-12-15T08:56:34.988Z,4.50
2018-12-15T08:59:03.935Z,4.40
2018-12-15T09:01:32.673Z,4.30
2018-12-15T09:04:01.654Z,4.30
2018-12-15T09:06:30.274Z,4.40
2018-12-15T09:08:59.402Z,4.50
2018-12-15T09:11:28.107Z,4.50
2018-12-15T09:13:57.634Z,4.40
2018-12-15T09:16:26.946Z,4.60
2018-12-15T09:18:56.467Z,4.50
2018-12-15T09:21:25.671Z,4.50
2018-12-15T09:23:54.810Z,4.40
2018-12-15T09:26:23.896Z,4.50
2018-12-15T09:28:53.356Z,4.50
2018-12-15T09:31:22.730Z,4.50
2018-12-15T09:33:52.037Z,4.40
2018-12-15T09:36:21.485Z,4.50
2018-12-15T09:38:51.152Z,4.50
2018-12-15T09:41:20.407Z,4.20
2018-12-15T09:43:49.677Z,4.50
2018-12-15T09:46:18.981Z,4.60
2018-12-15T09:48:48.349Z,4.50
2018-12-15T09:51:16.999Z,4.30
2018-12-15T09:53:46.290Z,4.30
2018-12-15T09:56:15.624Z,4.20
2018-12-15T09:58:45.119Z,4.40
2018-12-15T10:01:14.187Z,4.50
2018-12-15T10:03:43.284Z,4.50
2018-12-15T10:06:13.068Z,4.50
2018-12-15T10:08:42.461Z,4.30
2018-12-15T10:11:12.050Z,4.10
2018-12-15T10:13:41.321Z,3.90
2018-12-15T10:16:10.580Z,4.10
2018-12-15T10:18:39.786Z,4.00
2018-12-15T10:21:08.835Z,3.90
2018-12-15T10:23:37.755Z,4.20
2018-12-15T10:26:06.966Z,4.20
2018-12-15T10:28:35.548Z,4.10
2018-12-15T10:31:10.004Z,3.90
2018-12-15T10:33:39.395Z,3.90
2018-12-15T10:36:08.457Z,4.20
2018-12-15T10:38:37.782Z,3.90
2018-12-15T10:41:06.829Z,4.20
2018-12-15T10:43:35.991Z,4.00
2018-12-15T10:46:05.320Z,4.20
2018-12-15T10:48:35.528Z,3.90
2018-12-15T10:51:04.612Z,3.90
2018-12-15T10:53:33.721Z,4.20
2018-12-15T10:56:03.002Z,4.50
2018-12-15T10:58:31.845Z,4.30
2018-12-15T11:01:03.439Z,4.30
2018-12-15T11:03:32.846Z,4.50
2018-12-15T11:06:01.791Z,4.40
2018-12-15T11:08:30.882Z,4.30
2018-12-15T11:11:00.227Z,4.50
2018-12-15T11:13:28.820Z,4.80
2018-12-15T11:15:57.986Z,4.80
2018-12-15T11:18:26.627Z,4.70
2018-12-15T11:20:55.517Z,4.80
2018-12-15T11:23:24.859Z,4.80
2018-12-15T11:25:54.151Z,4.70
2018-12-15T11:28:23.503Z,4.80
2018-12-15T11:30:52.787Z,4.80
2018-12-15T11:33:22.204Z,4.50
2018-12-15T11:35:51.429Z,4.60
2018-12-15T11:38:20.819Z,4.70
2018-12-15T11:40:50.273Z,4.80
2018-12-15T11:43:19.298Z,4.80
2018-12-15T11:45:48.293Z,4.70
2018-12-15T11:48:17.318Z,4.90
2018-12-15T11:50:46.606Z,4.60
2018-12-15T11:53:16.143Z,4.70
2018-12-15T11:55:45.435Z,4.90
2018-12-15T11:58:14.739Z,4.80
2018-12-15T12:00:43.875Z,4.70
2018-12-15T12:03:13.116Z,4.90
2018-12-15T12:05:42.033Z,4.60
2018-12-15T12:08:11.070Z,4.80
2018-12-15T12:10:40.179Z,4.80
2018-12-15T12:13:09.187Z,5.00
2018-12-15T12:15:38.545Z,5.00
2018-12-15T12:18:07.654Z,5.00
2018-12-15T12:20:36.841Z,5.10
2018-12-15T12:23:06.157Z,5.10
2018-12-15T12:25:35.336Z,4.80
2018-12-15T12:28:04.601Z,4.80
2018-12-15T12:30:33.803Z,4.80
2018-12-15T12:33:02.860Z,5.00
2018-12-15T12:35:32.277Z,5.10
2018-12-15T12:38:01.454Z,5.10
2018-12-15T12:40:30.557Z,5.10
2018-12-15T12:42:59.621Z,5.00
2018-12-15T12:45:28.933Z,5.00
2018-12-15T12:47:57.525Z,5.10
2018-12-15T12:50:26.871Z,5.00
2018-12-15T12:52:56.941Z,5.10
2018-12-15T12:55:26.296Z,5.10
2018-12-15T12:57:55.415Z,5.10
2018-12-15T13:00:24.783Z,4.90
2018-12-15T13:02:54.273Z,5.10
2018-12-15T13:05:23.516Z,5.10
2018-12-15T13:07:52.894Z,5.10
2018-12-15T13:10:21.933Z,5.00
2018-12-15T13:12:51.204Z,5.10
2018-12-15T13:15:20.560Z,4.90
2018-12-15T13:17:49.826Z,4.90
2018-12-15T13:20:18.897Z,5.00
2018-12-15T13:22:48.088Z,5.00
2018-12-15T13:25:17.143Z,5.00
2018-12-15T13:27:46.418Z,5.00
2018-12-15T13:30:15.471Z,5.30
2018-12-15T13:32:44.138Z,5.00
2018-12-15T13:35:13.109Z,5.00
2018-12-15T13:37:42.472Z,5.00
2018-12-15T13:40:12.183Z,5.10
2018-12-15T13:42:41.363Z,5.10
2018-12-15T13:45:10.466Z,5.40
2018-12-15T13:47:39.569Z,5.30
2018-12-15T13:50:10.314Z,5.10
2018-12-15T13:52:39.605Z,5.10
2018-12-15T13:55:09.191Z,5.30
2018-12-15T13:57:38.470Z,5.10
2018-12-15T14:00:07.823Z,5.10
2018-12-15T14:02:36.848Z,5.40
2018-12-15T14:05:06.114Z,5.40
2018-12-15T14:07:35.436Z,5.30
2018-12-15T14:10:05.616Z,5.40
2018-12-15T14:12:34.237Z,5.40
2018-12-15T14:15:02.868Z,5.40
2018-12-15T14:17:31.759Z,5.30
2018-12-15T14:20:07.615Z,5.60
2018-12-15T14:22:36.532Z,5.70
2018-12-15T14:25:06.470Z,5.60
2018-12-15T14:27:35.579Z,5.40
2018-12-15T14:30:05.539Z,5.70
2018-12-15T14:32:34.578Z,5.70
2018-12-15T14:35:03.775Z,5.60
2018-12-15T14:37:32.872Z,5.70
2018-12-15T14:40:02.155Z,5.50
2018-12-15T14:42:31.494Z,5.60
2018-12-15T14:45:00.504Z,5.50
2018-12-15T14:47:29.403Z,5.40
2018-12-15T14:49:58.516Z,5.80
2018-12-15T14:52:27.594Z,5.60
2018-12-15T14:54:56.413Z,5.50
2018-12-15T14:57:25.805Z,5.40
2018-12-15T14:59:54.442Z,5.70
2018-12-15T15:02:23.158Z,5.60
2018-12-15T15:04:51.927Z,5.50
2018-12-15T15:07:21.581Z,5.60
2018-12-15T15:09:50.709Z,5.50
2018-12-15T15:12:25.333Z,5.40
2018-12-15T15:14:54.826Z,5.50
2018-12-15T15:17:23.895Z,5.80
2018-12-15T15:19:53.261Z,5.50
2018-12-15T15:22:22.686Z,5.60
2018-12-15T15:24:51.623Z,5.40
2018-12-15T15:27:20.865Z,5.60
2018-12-15T15:29:49.726Z,5.40
2018-12-15T15:32:19.063Z,5.20
2018-12-15T15:34:47.738Z,5.40
2018-12-15T15:37:17.005Z,5.60
2018-12-15T15:39:45.613Z,5.60
2018-12-15T15:42:14.714Z,5.40
2018-12-15T15:44:43.698Z,5.70
2018-12-15T15:47:13.101Z,5.40
2018-12-15T15:49:41.744Z,5.20
2018-12-15T15:52:11.067Z,5.30
2018-12-15T15:54:40.364Z,5.30
2018-12-15T15:57:09.407Z,5.40
2018-12-15T15:59:38.961Z,5.30
2018-12-15T16:02:08.247Z,5.30
2018-12-15T16:04:37.555Z,5.40
2018-12-15T16:07:06.890Z,5.30
2018-12-15T16:09:35.957Z,5.50
2018-12-15T16:12:05.460Z,5.30
2018-12-15T16:14:34.673Z,5.40
2018-12-15T16:17:03.585Z,5.40
2018-12-15T16:19:32.785Z,5.20
2018-12-15T16:22:02.327Z,5.30
2018-12-15T16:24:31.586Z,5.40
2018-12-15T16:27:00.916Z,5.30
2018-12-15T16:29:29.982Z,5.40
2018-12-15T16:31:58.867Z,5.30
2018-12-15T16:34:28.180Z,5.60
2018-12-15T16:36:57.979Z,5.70
2018-12-15T16:39:27.068Z,5.40
2018-12-15T16:41:56.702Z,5.60
2018-12-15T16:44:26.024Z,5.70
2018-12-15T16:46:55.317Z,5.70
2018-12-15T16:49:24.403Z,5.70
2018-12-15T16:51:54.443Z,5.70
2018-12-15T16:54:23.474Z,6.10
2018-12-15T16:56:53.170Z,5.90
2018-12-15T16:59:22.544Z,6.00
2018-12-15T17:01:51.574Z,6.10
2018-12-15T17:04:20.699Z,6.30
2018-12-15T17:06:49.778Z,6.30
2018-12-15T17:09:18.965Z,6.40
2018-12-15T17:11:47.707Z,6.40
2018-12-15T17:14:16.885Z,6.60
2018-12-15T17:16:45.524Z,6.60
2018-12-15T17:19:14.657Z,6.70
2018-12-15T17:21:43.940Z,6.80
2018-12-15T17:24:13.483Z,6.90
2018-12-15T17:26:42.434Z,7.10
2018-12-15T17:29:11.708Z,7.00
2018-12-15T17:31:41.056Z,7.20
2018-12-15T17:34:10.182Z,7.20
2018-12-15T17:36:39.195Z,7.20
2018-12-15T17:39:08.287Z,7.30
2018-12-15T17:41:38.011Z,7.30
2018-12-15T17:44:07.160Z,7.50
2018-12-15T17:46:36.378Z,7.40
2018-12-15T17:49:05.507Z,7.60
2018-12-15T17:51:35.082Z,7.50
2018-12-15T17:54:03.782Z,7.50
2018-12-15T17:56:33.017Z,7.90
2018-12-15T17:59:01.703Z,7.40
2018-12-15T18:01:30.380Z,7.60
2018-12-15T18:03:59.305Z,7.60
2018-12-15T18:06:28.630Z,7.80
2018-12-15T18:08:57.656Z,7.70
2018-12-15T18:11:27.242Z,7.70
2018-12-15T18:13:56.712Z,7.90
2018-12-15T18:16:25.930Z,7.80
2018-12-15T18:18:55.333Z,7.80
2018-12-15T18:21:24.784Z,7.70
2018-12-15T18:23:53.900Z,7.90
2018-12-15T18:26:23.218Z,7.90
2018-12-15T18:28:52.328Z,7.90
2018-12-15T18:31:21.398Z,7.90
2018-12-15T18:33:50.611Z,8.00
2018-12-15T18:36:19.939Z,8.00
2018-12-15T18:38:49.614Z,8.30
2018-12-15T18:41:18.298Z,8.30
2018-12-15T18:43:46.945Z,8.30
2018-12-15T18:46:15.583Z,8.40
2018-12-15T18:48:44.614Z,8.50
2018-12-15T18:51:16.496Z,8.60
2018-12-15T18:53:52.645Z,8.70
2018-12-15T18:56:21.509Z,8.60
2018-12-15T18:58:50.940Z,8.80
2018-12-15T19:01:20.328Z,8.90
2018-12-15T19:03:49.605Z,8.90
2018-12-15T19:06:18.789Z,9.00
2018-12-15T19:08:50.353Z,9.00
2018-12-15T19:11:20.008Z,9.10
2018-12-15T19:13:49.096Z,9.20
2018-12-15T19:16:18.154Z,9.10
2018-12-15T19:18:47.274Z,9.20
2018-12-15T19:21:22.771Z,9.10
2018-12-15T19:23:47.617Z,9.00
2018-12-15T19:26:16.271Z,8.90
2018-12-15T19:28:45.087Z,8.80
2018-12-15T19:31:13.789Z,8.90
2018-12-15T19:33:42.782Z,8.70
2018-12-15T19:36:12.169Z,8.60
2018-12-15T19:38:41.239Z,8.60
2018-12-15T19:41:10.568Z,8.60
2018-12-15T19:43:39.856Z,8.60
2018-12-15T19:46:09.214Z,8.60
2018-12-15T19:48:38.738Z,8.70
2018-12-15T19:51:07.753Z,8.50
2018-12-15T19:53:37.391Z,8.50
2018-12-15T19:56:06.298Z,8.50
2018-12-15T19:58:35.553Z,8.60
2018-12-15T20:01:04.796Z,8.70
2018-12-15T20:03:33.971Z,8.70
2018-12-15T20:06:03.218Z,8.80
2018-12-15T20:08:32.198Z,8.80
2018-12-15T20:11:01.780Z,8.80
2018-12-15T20:13:31.063Z,9.00
2018-12-15T20:16:00.120Z,9.00
2018-12-15T20:18:29.408Z,9.20
2018-12-15T20:20:58.574Z,9.20
2018-12-15T20:23:27.469Z,9.20
2018-12-15T20:25:56.627Z,9.10
2018-12-15T20:28:25.838Z,9.10
2018-12-15T20:30:55.058Z,9.30
2018-12-15T20:33:23.978Z,9.20
2018-12-15T20:35:53.118Z,9.20
2018-12-15T20:38:22.040Z,9.40
2018-12-15T20:40:51.435Z,9.10
2018-12-15T20:43:20.680Z,9.10
2018-12-15T20:45:49.789Z,9.00
2018-12-15T20:48:19.239Z,9.10
2018-12-15T20:50:48.132Z,9.10
2018-12-15T20:53:16.864Z,9.10
2018-12-15T20:55:45.509Z,9.40
2018-12-15T20:58:14.215Z,9.20
2018-12-15T21:00:42.876Z,9.30
2018-12-15T21:03:12.075Z,9.30
2018-12-15T21:05:41.190Z,9.30
2018-12-15T21:08:10.563Z,9.30
2018-12-15T21:10:40.642Z,9.30
2018-12-15T21:13:09.838Z,9.30
2018-12-15T21:15:40.607Z,9.30
2018-12-15T21:18:09.887Z,9.30
2018-12-15T21:20:39.396Z,9.30
2018-12-15T21:23:08.853Z,9.40
2018-12-15T21:25:37.937Z,9.40
2018-12-15T21:28:07.215Z,9.40
2018-12-15T21:30:36.346Z,9.40
2018-12-15T21:33:05.628Z,9.40
2018-12-15T21:35:34.275Z,9.40
2018-12-15T21:38:03.418Z,9.40
2018-12-15T21:40:32.064Z,9.40
2018-12-15T21:43:01.149Z,9.40
2018-12-15T21:45:29.824Z,9.40
2018-12-15T21:47:58.978Z,9.40
2018-12-15T21:50:28.101Z,9.40
2018-12-15T21:52:57.596Z,9.30
2018-12-15T21:55:26.875Z,9.30
2018-12-15T21:57:56.914Z,9.30
2018-12-15T22:00:26.324Z,9.30
2018-12-15T22:02:55.577Z,9.30
2018-12-15T22:05:24.878Z,9.40
2018-12-15T22:07:53.946Z,9.30
2018-12-15T22:10:22.957Z,9.40
2018-12-15T22:12:51.969Z,9.20
2018-12-15T22:15:21.257Z,9.40
2018-12-15T22:17:50.407Z,8.90
2018-12-15T22:20:19.786Z,9.10
2018-12-15T22:22:48.525Z,9.10
2018-12-15T22:25:17.202Z,9.00
2018-12-15T22:27:45.925Z,9.00
2018-12-15T22:30:15.067Z,9.00
2018-12-15T22:32:44.338Z,9.30
2018-12-15T22:35:13.550Z,9.00
2018-12-15T22:37:43.172Z,9.20
2018-12-15T22:40:13.008Z,9.00
2018-12-15T22:42:42.291Z,9.10
2018-12-15T22:45:11.327Z,9.00
2018-12-15T22:47:40.447Z,9.00
2018-12-15T22:50:09.718Z,9.00
2018-12-15T22:52:39.033Z,9.10
2018-12-15T22:57:42.954Z,9.10
2018-12-15T23:00:12.659Z,9.10
2018-12-15T23:02:41.927Z,9.20
2018-12-15T23:05:10.705Z,9.10
2018-12-15T23:07:40.069Z,9.20
2018-12-15T23:10:08.973Z,9.30
2018-12-15T23:12:38.271Z,9.10
2018-12-15T23:15:07.642Z,9.20
2018-12-15T23:17:36.616Z,9.10
2018-12-15T23:20:06.353Z,9.30
2018-12-15T23:22:35.440Z,9.10
2018-12-15T23:25:04.443Z,9.20
2018-12-15T23:27:33.518Z,9.10
2018-12-15T23:30:02.763Z,9.10
2018-12-15T23:32:31.854Z,9.30
2018-12-15T23:35:00.775Z,9.30
2018-12-15T23:37:29.862Z,9.10
2018-12-15T23:39:58.760Z,9.20
2018-12-15T23:42:28.084Z,9.30
2018-12-15T23:44:57.359Z,9.10
2018-12-15T23:47:26.490Z,9.10
2018-12-15T23:49:55.138Z,9.10
2018-12-15T23:52:23.827Z,9.10
2018-12-15T23:54:52.911Z,9.10
2018-12-15T23:57:21.790Z,9.10
2018-12-15T23:59:51.101Z,9.10
